Teuge International Airport

EHTE · Gelderland, 荷兰

罗盘
风向 的 风向 的 风向 到 风向 150° Teuge International Airport 8/26
风: 11 kt, 4 beaufort

4 kt

10 kt
改变
0 6.000 12.000 18.000 24.000 30.000
OVC 25.000 ft
METAR EHDL 270225Z AUTO 15011KT 090V210 9999 OVC250 05/03 Q1023 BLU

METAR Teuge International Airport - EHTE/TGE

Teuge International Airport是,荷兰中的中型机场。 该机场有一条跑道: 8/26. 该领域的国际民航组织标志是EHTE 它的国际航空运输协会代码是TGE.

这份报告是针对2022年11月27日 03:25, 当地时间在Deelen Air Base进行的。

机场观察

风向为150°,速度为11 kt。 风向在090°和210°之间变化。

可见度为10 km 或者更多。

有乌云密布在25.000 ft的高度。 破损或更高的上限为25.000 ft。

温度为5 °C,阵风为-1 °C。 露点为3 °C,相对湿度为87%。 海平面上的气压为1023 hPa (QNH)。

白天

今天,太阳从08:16升起,在16:30降落。 这适用于Teuge International Airport,世界夏令时可能有所不同。 当地时间与世界标准时间之间的时差为+1 小时。 当前,没有夏令时有效。

公司介绍

在这个机场,你可以找到飞行学校。 这个机场上的公司有Vliegles.nl, E-Flight Academy, Flight School Teuge 和 van de Bunte Aviation。

体会

在这个机场有飞行课程。 你可以在没有任何经验的情况下预订飞行课程。 在Teuge International Airport预订最多的飞行课程类型是Cessna flying lesson。 这些课程的价格从€ 149开始。 在这里阅读更多关于Cessna flying lesson的信息。你也可以在这个网站上进行预订。

跑道

Id 标题 侧风 逆风 侧风 %
8/26 084°-264° 10 kt 4 kt 91 %

逆风成分最大的方向会被突出显示,并用于横风计算。 这并不一定意味着这个方向在使用。

乌云

25.000 ft OVC 乌云密布

温度 & 天气

温度 5 °C
露点 3 °C
相对湿度 87%
风寒 -1 °C
Kp-index 3 (0-9)

白天

日出
08:16 (4:26)
中午
12:24
日落
16:31

小工具

你想在你的网站上有一个关于Teuge International Airport的当前航空天气(METAR)的小部件吗?

显示HTML代码

我们和第三方通过cookies跟踪您在我们网站上的互联网行为。如果你继续,我们认为你同意我们的饼干政策